»·PEaware :: DAL1197 KSLC-KPHX

DAL1197 :: KSLC-KPHX

FLIGHT INFORMATION

Flight Status: Arrived
Operator:
Delta Air Lines
More flights by this operator :: More flights under this callsign
Pilot: Patricio R. (14780)
Aircraft: BOEING 737-800
(B738)
More flights by this aircraft type
Origin: KSLC Salt Lake City Intl
United States
Destination: KPHX Phoenix Sky Harbor Intl
United States
More flights between these airports :: More routes between these airports
Route: +FFU9 BCE J11 CORKR TENTS BRUSR1
File this flight plan on PilotEdge
Remarks: PBN / A1B1C1D1S1S2 DOF / 180503 REG / N806SB EET / KZLA0026 KZAB0043 OPR / DAL PER / C RMK / TCAS SIMBRIEF
Altitude:
(Current/Filed)
35,000ft
Speed:
(Current/Filed)
429kts
Departed: 03-May-18 09:44 AM
Arrived: 03-May-18 10:53 AM
Distance/Time
Traveled:
441nm/1:09
Distance/Time
To Go:
Arrived

Flight Plot

Page will automatically refresh every two minutes.

Flight plan parsing failed; only flown route is shown


Map Options




Map Legend


Flown Route
Filed Route
Departure Airport
Arrival Airport
Navaid (VOR, NDB)
Fix

Horizontal Profiles

Position Reports

Time Latitude Longitude Heading Altitude Ground
Speed
03-May-18 09:25 40.789254 -111.981163 195 4235ft 0kts
03-May-18 09:26 40.789254 -111.981163 195 4235ft 0kts
03-May-18 09:27 40.789254 -111.981163 195 4235ft 0kts
03-May-18 09:28 40.789254 -111.981163 195 4235ft 0kts
03-May-18 09:29 40.789254 -111.981163 195 4235ft 0kts
03-May-18 09:30 40.789254 -111.981163 195 4235ft 0kts
03-May-18 09:31 40.789254 -111.981163 195 4235ft 0kts
03-May-18 09:32 40.789254 -111.981163 195 4235ft 0kts
03-May-18 09:33 40.789254 -111.981163 195 4235ft 0kts
03-May-18 09:34 40.789254 -111.981163 195 4235ft 0kts
03-May-18 09:35 40.789260 -111.981161 195 4235ft 1kts
03-May-18 09:36 40.789784 -111.980984 171 4235ft 2kts
03-May-18 09:37 40.789962 -111.981344 82 4235ft 0kts
03-May-18 09:38 40.789962 -111.981344 82 4235ft 0kts
03-May-18 09:39 40.790015 -111.979889 75 4235ft 9kts
03-May-18 09:40 40.791321 -111.977236 354 4235ft 14kts
03-May-18 09:41 40.798312 -111.978050 354 4235ft 28kts
03-May-18 09:42 40.804627 -111.978305 354 4235ft 17kts
03-May-18 09:43 40.806846 -111.976970 159 4234ft 18kts
03-May-18 09:44 40.772391 -111.972421 173 4837ft 184kts
03-May-18 09:45 40.721382 -111.961428 171 7133ft 196kts
03-May-18 09:46 40.659962 -111.955112 179 8669ft 256kts
03-May-18 09:47 40.580044 -111.952123 179 10577ft 311kts
03-May-18 09:48 40.488833 -111.948667 179 13147ft 338kts
03-May-18 09:49 40.393046 -111.945036 178 15912ft 355kts
03-May-18 09:50 40.292580 -111.941216 178 18601ft 371kts
03-May-18 09:51 40.187619 -111.951576 186 20912ft 389kts
03-May-18 09:52 40.082484 -111.967284 185 22895ft 407kts
03-May-18 09:53 39.968055 -111.984102 185 24748ft 424kts
03-May-18 09:54 39.849363 -112.001381 185 26392ft 440kts
03-May-18 09:55 39.726889 -112.019098 185 27899ft 454kts
03-May-18 09:56 39.599622 -112.037406 185 29260ft 469kts
03-May-18 09:57 39.469851 -112.055989 185 30931ft 470kts
03-May-18 09:58 39.341255 -112.074317 185 32657ft 464kts
03-May-18 09:59 39.214508 -112.092301 185 34277ft 456kts
03-May-18 10:00 39.089109 -112.110020 186 35263ft 461kts
03-May-18 10:01 38.957722 -112.128502 186 35283ft 492kts
03-May-18 10:02 38.823519 -112.147320 186 35261ft 500kts
03-May-18 10:03 38.686382 -112.166469 186 35251ft 498kts
03-May-18 10:04 38.548749 -112.185610 186 35255ft 498kts
03-May-18 10:05 38.411870 -112.204570 186 35257ft 498kts
03-May-18 10:06 38.274625 -112.223505 186 35291ft 498kts
03-May-18 10:07 38.138260 -112.242238 186 35296ft 494kts
03-May-18 10:08 38.001539 -112.260964 186 35300ft 500kts
03-May-18 10:09 37.872442 -112.278569 186 35286ft 500kts
03-May-18 10:10 37.738913 -112.296707 186 35290ft 500kts
03-May-18 10:10 37.624539 -112.308398 182 35289ft 497kts
03-May-18 10:11 37.487049 -112.316706 182 35293ft 497kts
03-May-18 10:12 37.349699 -112.324979 182 35294ft 497kts
03-May-18 10:13 37.212248 -112.333250 182 35299ft 494kts
03-May-18 10:14 37.077238 -112.341371 183 35282ft 489kts
03-May-18 10:15 36.941607 -112.349539 183 35280ft 489kts
03-May-18 10:16 36.814382 -112.357150 183 35270ft 489kts
03-May-18 10:18 36.656778 -112.366501 183 35272ft 486kts
03-May-18 10:18 36.544654 -112.373164 183 35273ft 486kts
03-May-18 10:19 36.426524 -112.380176 183 35283ft 486kts
03-May-18 10:20 36.291854 -112.388158 183 35285ft 486kts
03-May-18 10:21 36.157547 -112.396079 184 35286ft 482kts
03-May-18 10:22 36.024151 -112.405191 185 35287ft 482kts
03-May-18 10:23 35.896676 -112.416329 185 35287ft 482kts
03-May-18 10:24 35.766982 -112.427607 185 35125ft 446kts
03-May-18 10:25 35.643985 -112.438336 185 32327ft 452kts
03-May-18 10:26 35.518457 -112.449315 183 29898ft 460kts
03-May-18 10:27 35.395006 -112.434198 169 29280ft 436kts
03-May-18 10:28 35.271079 -112.409449 169 29287ft 459kts
03-May-18 10:29 35.146578 -112.384052 168 29286ft 449kts
03-May-18 10:30 35.022498 -112.356935 168 27682ft 447kts
03-May-18 10:31 34.904286 -112.331239 168 26549ft 427kts
03-May-18 10:32 34.801655 -112.308748 168 25576ft 425kts
03-May-18 10:33 34.686858 -112.283405 168 24498ft 414kts
03-May-18 10:34 34.574987 -112.258815 168 23452ft 407kts
03-May-18 10:35 34.465364 -112.234764 169 22429ft 396kts
03-May-18 10:36 34.358779 -112.208309 167 22266ft 394kts
03-May-18 10:37 34.253249 -112.180856 167 20064ft 380kts
03-May-18 10:38 34.153244 -112.154942 167 17053ft 351kts
03-May-18 10:39 34.061011 -112.138667 185 14336ft 325kts
03-May-18 10:40 33.970677 -112.148752 186 12061ft 334kts
03-May-18 10:41 33.886684 -112.159820 191 11324ft 308kts
03-May-18 10:42 33.806113 -112.177281 191 10080ft 295kts
03-May-18 10:43 33.729026 -112.193881 190 8547ft 272kts
03-May-18 10:44 33.657589 -112.209141 190 7075ft 251kts
03-May-18 10:45 33.591172 -112.223270 190 6014ft 234kts
03-May-18 10:46 33.528337 -112.236856 190 5791ft 230kts
03-May-18 10:47 33.466627 -112.250214 189 4692ft 223kts
03-May-18 10:48 33.440241 -112.202006 86 3888ft 192kts
03-May-18 10:49 33.440867 -112.139127 88 2975ft 174kts
03-May-18 10:50 33.440890 -112.086771 89 2122ft 149kts
03-May-18 10:51 33.440825 -112.037620 89 1346ft 148kts
03-May-18 10:52 33.440822 -112.002336 94 1117ft 22kts
03-May-18 10:53 33.440031 -112.001229 195 1117ft 0kts
03-May-18 10:54 33.439761 -112.001573 255 1117ft 11kts
03-May-18 10:55 33.439714 -112.007019 250 1117ft 11kts
03-May-18 10:56 33.437993 -112.007653 259 1116ft 3kts
03-May-18 10:57 33.437989 -112.008170 270 1116ft 0kts
03-May-18 10:58 33.440846 -112.059882 89 1705ft 148kts
03-May-18 10:59 33.440835 -112.020081 90 1123ft 142kts
03-May-18 11:00 33.440835 -112.020710 90 1125ft 143kts

Navigation Log

Ident Type
Flight plan parsing failed, navigation log unavailable